sensor_id;sensor_type;location;lat;lon;timestamp;pressure;altitude;pressure_sealevel;temperature;humidity
73457;BME280;61691;53.072;6.582;2023-04-01T00:01:24;99148.09;;;10.67;81.56
73457;BME280;61691;53.072;6.582;2023-04-01T00:03:50;99168.41;;;10.75;81.97
73457;BME280;61691;53.072;6.582;2023-04-01T00:06:19;99156.84;;;10.68;82.04
73457;BME280;61691;53.072;6.582;2023-04-01T00:08:45;99155.56;;;10.64;82.04
73457;BME280;61691;53.072;6.582;2023-04-01T00:11:14;99170.41;;;10.73;81.94
73457;BME280;61691;53.072;6.582;2023-04-01T00:13:41;99158.50;;;10.69;81.86
73457;BME280;61691;53.072;6.582;2023-04-01T00:16:08;99163.13;;;10.75;82.07
73457;BME280;61691;53.072;6.582;2023-04-01T00:18:46;99174.84;;;10.80;81.86
73457;BME280;61691;53.072;6.582;2023-04-01T00:21:17;99153.56;;;10.66;81.99
73457;BME280;61691;53.072;6.582;2023-04-01T00:23:44;99160.16;;;10.70;82.15
73457;BME280;61691;53.072;6.582;2023-04-01T00:26:11;99139.72;;;10.56;82.34
73457;BME280;61691;53.072;6.582;2023-04-01T00:28:39;99172.69;;;10.76;82.09
73457;BME280;61691;53.072;6.582;2023-04-01T00:31:07;99181.13;;;10.79;82.28
73457;BME280;61691;53.072;6.582;2023-04-01T00:33:34;99173.72;;;10.75;82.03
73457;BME280;61691;53.072;6.582;2023-04-01T00:36:12;99173.84;;;10.81;82.39
73457;BME280;61691;53.072;6.582;2023-04-01T00:38:40;99173.47;;;10.84;82.32
73457;BME280;61691;53.072;6.582;2023-04-01T00:41:09;99171.81;;;10.83;82.10
73457;BME280;61691;53.072;6.582;2023-04-01T00:43:45;99162.75;;;10.78;81.95
73457;BME280;61691;53.072;6.582;2023-04-01T00:46:12;99164.41;;;10.79;82.27
73457;BME280;61691;53.072;6.582;2023-04-01T00:48:42;99149.44;;;10.63;82.52
73457;BME280;61691;53.072;6.582;2023-04-01T00:51:28;99163.13;;;10.75;82.46
73457;BME280;61691;53.072;6.582;2023-04-01T00:53:58;99148.72;;;10.69;82.29
73457;BME280;61691;53.072;6.582;2023-04-01T00:56:35;99170.53;;;10.79;81.85
73457;BME280;61691;53.072;6.582;2023-04-01T00:59:10;99148.28;;;10.66;81.90
73457;BME280;61691;53.072;6.582;2023-04-01T01:01:37;99176.00;;;10.78;82.34
73457;BME280;61691;53.072;6.582;2023-04-01T01:04:05;99140.72;;;10.55;82.35
73457;BME280;61691;53.072;6.582;2023-04-01T01:09:26;99157.22;;;10.65;82.19
73457;BME280;61691;53.072;6.582;2023-04-01T01:14:29;99168.94;;;10.70;82.41
73457;BME280;61691;53.072;6.582;2023-04-01T01:17:24;99175.75;;;10.65;82.36
73457;BME280;61691;53.072;6.582;2023-04-01T01:23:01;99170.50;;;10.57;82.64
73457;BME280;61691;53.072;6.582;2023-04-01T01:31:12;99140.22;;;10.28;82.37
73457;BME280;61691;53.072;6.582;2023-04-01T01:33:54;99179.00;;;10.52;82.26
73457;BME280;61691;53.072;6.582;2023-04-01T01:36:26;99178.50;;;10.48;82.78
73457;BME280;61691;53.072;6.582;2023-04-01T01:38:55;99157.06;;;10.35;82.82
73457;BME280;61691;53.072;6.582;2023-04-01T01:41:25;99173.53;;;10.45;82.70
73457;BME280;61691;53.072;6.582;2023-04-01T01:43:53;99168.25;;;10.45;82.88
73457;BME280;61691;53.072;6.582;2023-04-01T01:46:24;99156.69;;;10.38;82.46
73457;BME280;61691;53.072;6.582;2023-04-01T01:48:53;99178.50;;;10.48;82.68
73457;BME280;61691;53.072;6.582;2023-04-01T01:51:21;99161.16;;;10.38;82.85
73457;BME280;61691;53.072;6.582;2023-04-01T01:53:49;99175.19;;;10.46;82.83
73457;BME280;61691;53.072;6.582;2023-04-01T01:56:17;99159.06;;;10.33;82.50
73457;BME280;61691;53.072;6.582;2023-04-01T01:58:49;99126.50;;;10.17;82.63
73457;BME280;61691;53.072;6.582;2023-04-01T02:01:23;99182.16;;;10.47;82.87
73457;BME280;61691;53.072;6.582;2023-04-01T02:03:52;99196.06;;;10.50;82.94
73457;BME280;61691;53.072;6.582;2023-04-01T02:06:21;99172.59;;;10.38;82.65
73457;BME280;61691;53.072;6.582;2023-04-01T02:09:06;99158.75;;;10.28;82.66
73457;BME280;61691;53.072;6.582;2023-04-01T02:11:38;99175.44;;;10.37;83.23
73457;BME280;61691;53.072;6.582;2023-04-01T02:14:14;99192.97;;;10.38;82.95
73457;BME280;61691;53.072;6.582;2023-04-01T02:19:38;99168.69;;;10.26;83.09
73457;BME280;61691;53.072;6.582;2023-04-01T02:22:09;99203.34;;;10.47;82.73
73457;BME280;61691;53.072;6.582;2023-04-01T02:24:38;99198.41;;;10.44;83.15
73457;BME280;61691;53.072;6.582;2023-04-01T02:27:06;99206.66;;;10.50;83.38
73457;BME280;61691;53.072;6.582;2023-04-01T02:29:33;99191.78;;;10.40;82.74
73457;BME280;61691;53.072;6.582;2023-04-01T02:32:00;99206.28;;;10.53;82.89
73457;BME280;61691;53.072;6.582;2023-04-01T02:34:27;99191.63;;;10.42;83.39
73457;BME280;61691;53.072;6.582;2023-04-01T02:36:55;99181.19;;;10.40;83.31
73457;BME280;61691;53.072;6.582;2023-04-01T02:39:22;99205.81;;;10.49;83.14
73457;BME280;61691;53.072;6.582;2023-04-01T02:41:49;99151.53;;;10.14;83.32
73457;BME280;61691;53.072;6.582;2023-04-01T02:44:16;99211.94;;;10.50;82.73
73457;BME280;61691;53.072;6.582;2023-04-01T02:46:43;99207.81;;;10.47;83.37
73457;BME280;61691;53.072;6.582;2023-04-01T02:49:10;99202.06;;;10.43;82.83
73457;BME280;61691;53.072;6.582;2023-04-01T02:51:37;99218.06;;;10.50;83.34
73457;BME280;61691;53.072;6.582;2023-04-01T02:54:04;99204.03;;;10.41;82.93
73457;BME280;61691;53.072;6.582;2023-04-01T02:56:30;99184.59;;;10.26;83.31
73457;BME280;61691;53.072;6.582;2023-04-01T02:58:57;99215.09;;;10.45;82.90
73457;BME280;61691;53.072;6.582;2023-04-01T03:01:24;99216.28;;;10.42;83.37
73457;BME280;61691;53.072;6.582;2023-04-01T03:03:51;99194.00;;;10.29;82.96
73457;BME280;61691;53.072;6.582;2023-04-01T03:06:17;99222.53;;;10.50;83.07
73457;BME280;61691;53.072;6.582;2023-04-01T03:08:44;99229.84;;;10.47;83.02
73457;BME280;61691;53.072;6.582;2023-04-01T03:11:12;99235.50;;;10.44;83.26
73457;BME280;61691;53.072;6.582;2023-04-01T03:13:39;99232.19;;;10.42;83.44
73457;BME280;61691;53.072;6.582;2023-04-01T03:16:06;99214.00;;;10.31;83.40
73457;BME280;61691;53.072;6.582;2023-04-01T03:18:33;99243.44;;;10.44;83.50
73457;BME280;61691;53.072;6.582;2023-04-01T03:21:17;99241.78;;;10.43;83.33
73457;BME280;61691;53.072;6.582;2023-04-01T03:23:44;99207.28;;;10.21;83.52
73457;BME280;61691;53.072;6.582;2023-04-01T03:26:11;99241.13;;;10.41;83.76
73457;BME280;61691;53.072;6.582;2023-04-01T03:28:38;99221.16;;;10.23;83.76
73457;BME280;61691;53.072;6.582;2023-04-01T03:31:05;99207.94;;;10.15;83.76
73457;BME280;61691;53.072;6.582;2023-04-01T03:33:32;99234.72;;;10.28;83.62
73457;BME280;61691;53.072;6.582;2023-04-01T03:35:58;99195.56;;;10.07;83.36
73457;BME280;61691;53.072;6.582;2023-04-01T03:38:25;99221.69;;;10.18;83.67
73457;BME280;61691;53.072;6.582;2023-04-01T03:40:52;99234.91;;;10.26;83.43
73457;BME280;61691;53.072;6.582;2023-04-01T03:43:18;99239.22;;;10.27;84.02
73457;BME280;61691;53.072;6.582;2023-04-01T03:45:47;99266.31;;;10.37;83.77
73457;BME280;61691;53.072;6.582;2023-04-01T03:48:14;99257.22;;;10.32;84.03
73457;BME280;61691;53.072;6.582;2023-04-01T03:50:42;99267.47;;;10.35;83.82
73457;BME280;61691;53.072;6.582;2023-04-01T03:53:09;99244.53;;;10.19;83.83
73457;BME280;61691;53.072;6.582;2023-04-01T03:55:36;99268.63;;;10.32;84.30
73457;BME280;61691;53.072;6.582;2023-04-01T03:58:05;99262.38;;;10.25;84.40
73457;BME280;61691;53.072;6.582;2023-04-01T04:00:32;99270.00;;;10.28;83.94
73457;BME280;61691;53.072;6.582;2023-04-01T04:02:59;99254.97;;;10.21;84.00
73457;BME280;61691;53.072;6.582;2023-04-01T04:05:26;99240.88;;;10.12;84.19
73457;BME280;61691;53.072;6.582;2023-04-01T04:07:53;99272.47;;;10.30;84.45
73457;BME280;61691;53.072;6.582;2023-04-01T04:10:21;99277.56;;;10.31;83.90
73457;BME280;61691;53.072;6.582;2023-04-01T04:12:49;99260.09;;;10.22;84.41
73457;BME280;61691;53.072;6.582;2023-04-01T04:15:17;99275.28;;;10.28;84.52
73457;BME280;61691;53.072;6.582;2023-04-01T04:17:45;99273.94;;;10.32;84.16
73457;BME280;61691;53.072;6.582;2023-04-01T04:20:12;99250.13;;;10.16;84.54
73457;BME280;61691;53.072;6.582;2023-04-01T04:22:39;99282.53;;;10.34;84.51
73457;BME280;61691;53.072;6.582;2023-04-01T04:25:07;99273.66;;;10.19;84.77
73457;BME280;61691;53.072;6.582;2023-04-01T04:27:33;99278.94;;;10.27;84.72
73457;BME280;61691;53.072;6.582;2023-04-01T04:30:00;99293.16;;;10.26;84.53
73457;BME280;61691;53.072;6.582;2023-04-01T04:32:27;99289.84;;;10.24;84.63
73457;BME280;61691;53.072;6.582;2023-04-01T04:34:55;99286.22;;;10.17;85.00
73457;BME280;61691;53.072;6.582;2023-04-01T04:37:22;99294.50;;;10.22;84.29
73457;BME280;61691;53.072;6.582;2023-04-01T04:39:48;99297.16;;;10.22;84.38
73457;BME280;61691;53.072;6.582;2023-04-01T04:42:15;99288.88;;;10.17;84.40
73457;BME280;61691;53.072;6.582;2023-04-01T04:44:43;99303.44;;;10.21;84.85
73457;BME280;61691;53.072;6.582;2023-04-01T04:47:09;99306.09;;;10.21;84.57
73457;BME280;61691;53.072;6.582;2023-04-01T04:49:37;99305.91;;;10.15;84.91
73457;BME280;61691;53.072;6.582;2023-04-01T04:52:03;99302.44;;;10.14;84.55
73457;BME280;61691;53.072;6.582;2023-04-01T04:54:30;99319.81;;;10.25;84.78
73457;BME280;61691;53.072;6.582;2023-04-01T04:56:57;99321.00;;;10.22;84.59
73457;BME280;61691;53.072;6.582;2023-04-01T04:59:23;99317.84;;;10.19;84.94
73457;BME280;61691;53.072;6.582;2023-04-01T05:01:50;99300.66;;;10.06;84.68
73457;BME280;61691;53.072;6.582;2023-04-01T05:04:17;99303.63;;;10.03;85.07
73457;BME280;61691;53.072;6.582;2023-04-01T05:06:44;99305.41;;;10.11;85.11
73457;BME280;61691;53.072;6.582;2023-04-01T05:09:11;99332.88;;;10.26;85.12
73457;BME280;61691;53.072;6.582;2023-04-01T05:11:38;99308.22;;;10.09;84.61
73457;BME280;61691;53.072;6.582;2023-04-01T05:14:04;99335.22;;;10.21;84.64
73457;BME280;61691;53.072;6.582;2023-04-01T05:16:31;99325.94;;;10.09;84.88
73457;BME280;61691;53.072;6.582;2023-04-01T05:18:58;99356.56;;;10.28;84.56
73457;BME280;61691;53.072;6.582;2023-04-01T05:21:25;99349.47;;;10.20;84.95
73457;BME280;61691;53.072;6.582;2023-04-01T05:23:51;99361.34;;;10.24;84.99
73457;BME280;61691;53.072;6.582;2023-04-01T05:26:18;99353.78;;;10.21;85.18
73457;BME280;61691;53.072;6.582;2023-04-01T05:28:44;99357.06;;;10.23;85.18
73457;BME280;61691;53.072;6.582;2023-04-01T05:31:11;99361.72;;;10.21;84.89
73457;BME280;61691;53.072;6.582;2023-04-01T05:33:38;99358.06;;;10.14;85.00
73457;BME280;61691;53.072;6.582;2023-04-01T05:36:15;99377.25;;;10.24;85.36
73457;BME280;61691;53.072;6.582;2023-04-01T05:38:43;99379.25;;;10.22;85.02
73457;BME280;61691;53.072;6.582;2023-04-01T05:41:13;99377.91;;;10.18;84.99
73457;BME280;61691;53.072;6.582;2023-04-01T05:43:40;99383.22;;;10.18;84.97
73457;BME280;61691;53.072;6.582;2023-04-01T05:46:08;99353.75;;;9.97;85.11
73457;BME280;61691;53.072;6.582;2023-04-01T05:48:35;99384.19;;;10.09;85.48
73457;BME280;61691;53.072;6.582;2023-04-01T05:51:02;99390.81;;;10.13;85.07
73457;BME280;61691;53.072;6.582;2023-04-01T05:53:30;99391.81;;;10.04;85.20
73457;BME280;61691;53.072;6.582;2023-04-01T05:55:57;99371.13;;;9.83;85.31
73457;BME280;61691;53.072;6.582;2023-04-01T05:58:27;99402.41;;;10.04;85.73
73457;BME280;61691;53.072;6.582;2023-04-01T06:01:01;99395.44;;;9.95;85.07
73457;BME280;61691;53.072;6.582;2023-04-01T06:03:38;99409.66;;;10.02;85.25
73457;BME280;61691;53.072;6.582;2023-04-01T06:06:08;99417.97;;;10.07;85.61
73457;BME280;61691;53.072;6.582;2023-04-01T06:08:40;99417.63;;;10.10;85.57
73457;BME280;61691;53.072;6.582;2023-04-01T06:25:26;99438.13;;;10.16;85.29
73457;BME280;61691;53.072;6.582;2023-04-01T06:31:20;99449.75;;;10.23;85.61
73457;BME280;61691;53.072;6.582;2023-04-01T06:40:02;99467.28;;;10.24;85.58
73457;BME280;61691;53.072;6.582;2023-04-01T06:45:13;99463.34;;;10.20;85.61
73457;BME280;61691;53.072;6.582;2023-04-01T06:48:10;99479.53;;;10.25;85.19
73457;BME280;61691;53.072;6.582;2023-04-01T06:50:58;99491.94;;;10.25;85.37
73457;BME280;61691;53.072;6.582;2023-04-01T06:56:27;99478.69;;;10.17;85.22
73457;BME280;61691;53.072;6.582;2023-04-01T07:01:57;99480.00;;;10.13;85.40
73457;BME280;61691;53.072;6.582;2023-04-01T07:04:33;99468.44;;;10.05;85.37
73457;BME280;61691;53.072;6.582;2023-04-01T07:07:08;99501.41;;;10.19;85.93
73457;BME280;61691;53.072;6.582;2023-04-01T07:09:40;99503.22;;;10.19;85.84
73457;BME280;61691;53.072;6.582;2023-04-01T07:17:43;99514.28;;;10.14;85.39
73457;BME280;61691;53.072;6.582;2023-04-01T07:20:23;99498.72;;;10.11;85.82
73457;BME280;61691;53.072;6.582;2023-04-01T07:22:56;99525.56;;;10.24;85.54
73457;BME280;61691;53.072;6.582;2023-04-01T07:25:31;99523.25;;;10.21;85.87
73457;BME280;61691;53.072;6.582;2023-04-01T07:28:06;99541.13;;;10.27;85.63
73457;BME280;61691;53.072;6.582;2023-04-01T07:30:55;99543.09;;;10.25;85.64
73457;BME280;61691;53.072;6.582;2023-04-01T07:33:39;99517.91;;;10.13;85.70
73457;BME280;61691;53.072;6.582;2023-04-01T07:44:07;99550.91;;;10.27;85.91
73457;BME280;61691;53.072;6.582;2023-04-01T07:49:12;99560.81;;;10.33;85.47
73457;BME280;61691;53.072;6.582;2023-04-01T07:54:50;99571.94;;;10.36;85.91
73457;BME280;61691;53.072;6.582;2023-04-01T07:57:31;99560.34;;;10.29;85.51
73457;BME280;61691;53.072;6.582;2023-04-01T08:02:44;99574.59;;;10.36;85.69
73457;BME280;61691;53.072;6.582;2023-04-01T08:05:26;99588.47;;;10.46;86.00
73457;BME280;61691;53.072;6.582;2023-04-01T08:10:56;99576.56;;;10.42;85.74
73457;BME280;61691;53.072;6.582;2023-04-01T08:16:23;99603.41;;;10.64;85.97
73457;BME280;61691;53.072;6.582;2023-04-01T08:21:39;99615.16;;;10.69;85.85
73457;BME280;61691;53.072;6.582;2023-04-01T08:24:27;99619.31;;;10.72;85.75
73457;BME280;61691;53.072;6.582;2023-04-01T08:30:04;99617.50;;;10.80;85.60
73457;BME280;61691;53.072;6.582;2023-04-01T08:32:38;99607.56;;;10.74;85.67
73457;BME280;61691;53.072;6.582;2023-04-01T08:35:26;99620.63;;;10.84;85.57
73457;BME280;61691;53.072;6.582;2023-04-01T08:37:56;99621.31;;;10.86;85.56
73457;BME280;61691;53.072;6.582;2023-04-01T08:40:47;99629.56;;;10.91;85.03
73457;BME280;61691;53.072;6.582;2023-04-01T08:43:42;99646.31;;;10.92;85.13
73457;BME280;61691;53.072;6.582;2023-04-01T08:46:29;99643.19;;;10.96;85.04
73457;BME280;61691;53.072;6.582;2023-04-01T08:57:15;99666.69;;;11.32;85.08
73457;BME280;61691;53.072;6.582;2023-04-01T08:59:59;99667.38;;;11.34;85.08
73457;BME280;61691;53.072;6.582;2023-04-01T09:20:15;99689.06;;;11.21;83.85
73457;BME280;61691;53.072;6.582;2023-04-01T09:23:46;99683.97;;;11.28;84.03
73457;BME280;61691;53.072;6.582;2023-04-01T09:31:31;99708.16;;;11.33;84.07
73457;BME280;61691;53.072;6.582;2023-04-01T09:36:47;99715.44;;;11.31;83.36
73457;BME280;61691;53.072;6.582;2023-04-01T09:47:42;99731.03;;;11.50;83.07
73457;BME280;61691;53.072;6.582;2023-04-01T09:50:17;99734.16;;;11.29;82.19
73457;BME280;61691;53.072;6.582;2023-04-01T09:56:41;99755.22;;;11.06;82.51
73457;BME280;61691;53.072;6.582;2023-04-01T10:01:19;99765.59;;;10.75;82.33
73457;BME280;61691;53.072;6.582;2023-04-01T10:32:49;99816.25;;;10.22;83.47
73457;BME280;61691;53.072;6.582;2023-04-01T10:35:28;99823.16;;;10.23;83.31
73457;BME280;61691;53.072;6.582;2023-04-01T11:03:10;99857.19;;;9.92;82.98
73457;BME280;61691;53.072;6.582;2023-04-01T11:06:38;99861.63;;;9.84;83.15
73457;BME280;61691;53.072;6.582;2023-04-01T11:17:50;99876.44;;;9.77;82.94
73457;BME280;61691;53.072;6.582;2023-04-01T11:23:34;99801.50;;;9.15;83.05
73457;BME280;61691;53.072;6.582;2023-04-01T11:29:03;99890.59;;;9.67;82.73
73457;BME280;61691;53.072;6.582;2023-04-01T11:35:01;99891.28;;;9.69;83.04
73457;BME280;61691;53.072;6.582;2023-04-01T12:06:05;99975.19;;;10.30;80.60
73457;BME280;61691;53.072;6.582;2023-04-01T12:08:44;99967.50;;;10.19;80.57
73457;BME280;61691;53.072;6.582;2023-04-01T12:11:24;99971.03;;;10.10;80.80
73457;BME280;61691;53.072;6.582;2023-04-01T12:14:02;99985.25;;;10.09;80.60
73457;BME280;61691;53.072;6.582;2023-04-01T12:17:37;99984.34;;;10.00;80.63
73457;BME280;61691;53.072;6.582;2023-04-01T12:36:23;100017.09;;;9.82;80.67
73457;BME280;61691;53.072;6.582;2023-04-01T12:55:44;100079.34;;;9.86;81.29
73457;BME280;61691;53.072;6.582;2023-04-01T13:01:15;100036.66;;;9.71;81.10
73457;BME280;61691;53.072;6.582;2023-04-01T13:10:06;100078.59;;;9.93;80.23
73457;BME280;61691;53.072;6.582;2023-04-01T13:34:30;100126.25;;;9.66;80.20
73457;BME280;61691;53.072;6.582;2023-04-01T13:37:20;100134.19;;;9.66;80.05
73457;BME280;61691;53.072;6.582;2023-04-01T13:42:53;100125.69;;;9.62;79.84
73457;BME280;61691;53.072;6.582;2023-04-01T13:45:29;100109.44;;;9.57;79.64
73457;BME280;61691;53.072;6.582;2023-04-01T13:48:27;100150.06;;;9.66;79.23
73457;BME280;61691;53.072;6.582;2023-04-01T14:02:24;100174.09;;;9.45;78.75
73457;BME280;61691;53.072;6.582;2023-04-01T14:10:45;100188.00;;;9.47;79.54
73457;BME280;61691;53.072;6.582;2023-04-01T14:13:30;100185.94;;;9.41;78.77
73457;BME280;61691;53.072;6.582;2023-04-01T14:16:12;100196.38;;;9.33;78.83
73457;BME280;61691;53.072;6.582;2023-04-01T14:21:43;100212.81;;;9.27;79.20
73457;BME280;61691;53.072;6.582;2023-04-01T14:27:34;100217.28;;;9.26;79.47
73457;BME280;61691;53.072;6.582;2023-04-01T14:30:34;100233.00;;;9.28;79.31
73457;BME280;61691;53.072;6.582;2023-04-01T14:36:25;100237.91;;;9.23;79.52
73457;BME280;61691;53.072;6.582;2023-04-01T14:39:33;100243.47;;;9.20;79.43
73457;BME280;61691;53.072;6.582;2023-04-01T14:42:55;100233.16;;;8.98;79.46
73457;BME280;61691;53.072;6.582;2023-04-01T14:51:16;100268.53;;;9.16;79.14
73457;BME280;61691;53.072;6.582;2023-04-01T14:54:02;100270.72;;;9.11;79.09
73457;BME280;61691;53.072;6.582;2023-04-01T14:56:41;100264.31;;;9.04;79.43
73457;BME280;61691;53.072;6.582;2023-04-01T14:59:27;100272.25;;;9.04;79.54
73457;BME280;61691;53.072;6.582;2023-04-01T15:02:03;100265.28;;;8.83;79.00
73457;BME280;61691;53.072;6.582;2023-04-01T15:16:17;100309.34;;;8.73;79.30
73457;BME280;61691;53.072;6.582;2023-04-01T15:19:07;100326.19;;;8.72;79.17
73457;BME280;61691;53.072;6.582;2023-04-01T15:25:00;100320.59;;;8.56;78.94
73457;BME280;61691;53.072;6.582;2023-04-01T15:27:51;100342.56;;;8.66;78.82
73457;BME280;61691;53.072;6.582;2023-04-01T15:33:17;100344.38;;;8.56;78.74
73457;BME280;61691;53.072;6.582;2023-04-01T15:36:18;100379.09;;;8.51;78.38
73457;BME280;61691;53.072;6.582;2023-04-01T15:47:02;100377.66;;;8.38;78.65
73457;BME280;61691;53.072;6.582;2023-04-01T15:49:39;100365.31;;;8.27;78.71
73457;BME280;61691;53.072;6.582;2023-04-01T15:52:22;100404.06;;;8.38;78.24
73457;BME280;61691;53.072;6.582;2023-04-01T15:55:02;100409.09;;;8.41;78.57
73457;BME280;61691;53.072;6.582;2023-04-01T15:57:56;100407.66;;;8.37;78.42
73457;BME280;61691;53.072;6.582;2023-04-01T16:00:57;100424.88;;;8.31;78.17
73457;BME280;61691;53.072;6.582;2023-04-01T16:12:03;100429.28;;;7.89;78.05
73457;BME280;61691;53.072;6.582;2023-04-01T16:14:55;100452.59;;;8.05;78.20
73457;BME280;61691;53.072;6.582;2023-04-01T16:17:44;100450.78;;;8.05;78.36
73457;BME280;61691;53.072;6.582;2023-04-01T16:20:22;100448.44;;;7.91;78.56
73457;BME280;61691;53.072;6.582;2023-04-01T16:23:09;100470.53;;;7.90;78.05
73457;BME280;61691;53.072;6.582;2023-04-01T16:25:44;100478.44;;;7.90;78.11
73457;BME280;61691;53.072;6.582;2023-04-01T16:28:19;100489.50;;;7.84;78.39
73457;BME280;61691;53.072;6.582;2023-04-01T16:30:55;100487.13;;;7.81;78.70
73457;BME280;61691;53.072;6.582;2023-04-01T16:36:26;100489.06;;;7.68;78.25
73457;BME280;61691;53.072;6.582;2023-04-01T16:41:49;100486.28;;;7.37;78.72
73457;BME280;61691;53.072;6.582;2023-04-01T16:44:24;100470.94;;;7.31;78.44
73457;BME280;61691;53.072;6.582;2023-04-01T16:46:54;100523.75;;;7.52;78.58
73457;BME280;61691;53.072;6.582;2023-04-01T16:49:50;100529.41;;;7.48;78.40
73457;BME280;61691;53.072;6.582;2023-04-01T16:52:42;100540.19;;;7.45;78.86
73457;BME280;61691;53.072;6.582;2023-04-01T16:55:16;100550.41;;;7.38;78.69
73457;BME280;61691;53.072;6.582;2023-04-01T16:57:57;100526.44;;;7.30;78.87
73457;BME280;61691;53.072;6.582;2023-04-01T17:00:50;100545.47;;;7.45;78.59
73457;BME280;61691;53.072;6.582;2023-04-01T17:03:28;100552.44;;;7.46;78.64
73457;BME280;61691;53.072;6.582;2023-04-01T17:11:37;100577.38;;;7.42;78.31
73457;BME280;61691;53.072;6.582;2023-04-01T17:20:01;100603.50;;;7.33;79.01
73457;BME280;61691;53.072;6.582;2023-04-01T17:22:53;100615.63;;;7.36;78.99
73457;BME280;61691;53.072;6.582;2023-04-01T17:30:35;100622.44;;;7.27;78.54
73457;BME280;61691;53.072;6.582;2023-04-01T17:39:01;100656.22;;;7.22;78.66
73457;BME280;61691;53.072;6.582;2023-04-01T17:52:30;100648.72;;;6.83;78.73
73457;BME280;61691;53.072;6.582;2023-04-01T17:55:45;100677.72;;;6.94;78.76
73457;BME280;61691;53.072;6.582;2023-04-01T17:58:20;100689.47;;;6.90;79.08
73457;BME280;61691;53.072;6.582;2023-04-01T18:01:13;100691.34;;;6.88;79.19
73457;BME280;61691;53.072;6.582;2023-04-01T18:15:11;100731.81;;;6.76;79.09
73457;BME280;61691;53.072;6.582;2023-04-01T18:20:42;100744.25;;;6.74;79.84
73457;BME280;61691;53.072;6.582;2023-04-01T18:25:47;100749.00;;;6.69;79.59
73457;BME280;61691;53.072;6.582;2023-04-01T18:28:39;100757.56;;;6.59;79.15
73457;BME280;61691;53.072;6.582;2023-04-01T18:31:38;100777.53;;;6.75;79.33
73457;BME280;61691;53.072;6.582;2023-04-01T18:37:32;100786.59;;;6.71;79.65
73457;BME280;61691;53.072;6.582;2023-04-01T18:40:11;100794.59;;;6.69;79.91
73457;BME280;61691;53.072;6.582;2023-04-01T18:46:17;100817.69;;;6.66;80.00
73457;BME280;61691;53.072;6.582;2023-04-01T18:54:31;100805.63;;;6.50;79.59
73457;BME280;61691;53.072;6.582;2023-04-01T18:57:12;100826.50;;;6.53;79.40
73457;BME280;61691;53.072;6.582;2023-04-01T18:59:48;100820.19;;;6.43;79.71
73457;BME280;61691;53.072;6.582;2023-04-01T19:02:29;100832.84;;;6.38;79.36
73457;BME280;61691;53.072;6.582;2023-04-01T19:05:16;100853.22;;;6.47;79.24
73457;BME280;61691;53.072;6.582;2023-04-01T19:07:53;100827.56;;;6.38;79.75
73457;BME280;61691;53.072;6.582;2023-04-01T19:10:40;100838.94;;;6.39;79.59
73457;BME280;61691;53.072;6.582;2023-04-01T19:19:10;100893.91;;;6.43;79.18
73457;BME280;61691;53.072;6.582;2023-04-01T19:21:44;100898.66;;;6.38;79.18
73457;BME280;61691;53.072;6.582;2023-04-01T19:27:34;100922.13;;;6.41;79.28
73457;BME280;61691;53.072;6.582;2023-04-01T19:33:05;100939.31;;;6.34;78.75
73457;BME280;61691;53.072;6.582;2023-04-01T19:38:28;100942.56;;;6.25;78.95
73457;BME280;61691;53.072;6.582;2023-04-01T19:46:51;100922.44;;;5.99;78.76
73457;BME280;61691;53.072;6.582;2023-04-01T19:55:19;100976.84;;;6.11;79.10
73457;BME280;61691;53.072;6.582;2023-04-01T19:57:55;100975.81;;;6.01;79.02
73457;BME280;61691;53.072;6.582;2023-04-01T20:00:40;100949.81;;;5.69;79.09
73457;BME280;61691;53.072;6.582;2023-04-01T20:03:38;100993.66;;;5.96;78.97
73457;BME280;61691;53.072;6.582;2023-04-01T20:09:14;101019.25;;;5.94;78.94
73457;BME280;61691;53.072;6.582;2023-04-01T20:12:08;101012.50;;;5.90;78.73
73457;BME280;61691;53.072;6.582;2023-04-01T20:14:46;101022.28;;;5.88;78.74
73457;BME280;61691;53.072;6.582;2023-04-01T20:20:24;100989.94;;;5.59;78.31
73457;BME280;61691;53.072;6.582;2023-04-01T20:23:17;101026.72;;;5.73;78.61
73457;BME280;61691;53.072;6.582;2023-04-01T20:26:02;101037.47;;;5.82;78.76
73457;BME280;61691;53.072;6.582;2023-04-01T20:31:43;101047.16;;;5.55;78.26
73457;BME280;61691;53.072;6.582;2023-04-01T20:40:25;101083.00;;;5.70;78.03
73457;BME280;61691;53.072;6.582;2023-04-01T20:45:37;101071.53;;;5.57;77.82
73457;BME280;61691;53.072;6.582;2023-04-01T20:51:14;101101.31;;;5.58;77.75
73457;BME280;61691;53.072;6.582;2023-04-01T20:56:28;101106.94;;;5.66;78.13
73457;BME280;61691;53.072;6.582;2023-04-01T21:01:58;101111.34;;;5.65;77.81
73457;BME280;61691;53.072;6.582;2023-04-01T21:12:39;101135.31;;;5.61;77.42
73457;BME280;61691;53.072;6.582;2023-04-01T21:15:19;101134.47;;;5.60;77.60
73457;BME280;61691;53.072;6.582;2023-04-01T21:18:17;101142.38;;;5.60;77.65
73457;BME280;61691;53.072;6.582;2023-04-01T21:24:02;101130.94;;;5.47;77.60
73457;BME280;61691;53.072;6.582;2023-04-01T21:29:39;101166.22;;;5.57;77.28
73457;BME280;61691;53.072;6.582;2023-04-01T21:34:56;101172.41;;;5.42;76.60
73457;BME280;61691;53.072;6.582;2023-04-01T21:37:44;101178.03;;;5.50;76.63
73457;BME280;61691;53.072;6.582;2023-04-01T21:43:54;101194.41;;;5.55;76.78
73457;BME280;61691;53.072;6.582;2023-04-01T21:52:13;101217.09;;;5.42;76.24
73457;BME280;61691;53.072;6.582;2023-04-01T22:10:53;101242.66;;;5.40;75.77
73457;BME280;61691;53.072;6.582;2023-04-01T22:16:20;101257.84;;;5.35;75.80
73457;BME280;61691;53.072;6.582;2023-04-01T22:19:03;101258.50;;;5.24;76.05
73457;BME280;61691;53.072;6.582;2023-04-01T22:24:26;101281.22;;;5.25;76.52
73457;BME280;61691;53.072;6.582;2023-04-01T22:35:18;101294.59;;;5.21;75.75
73457;BME280;61691;53.072;6.582;2023-04-01T22:38:02;101271.28;;;5.00;76.01
73457;BME280;61691;53.072;6.582;2023-04-01T22:51:45;101321.63;;;4.93;74.96
73457;BME280;61691;53.072;6.582;2023-04-01T22:54:21;101310.22;;;4.78;75.10
73457;BME280;61691;53.072;6.582;2023-04-01T22:59:46;101336.03;;;4.86;74.78